Time;durP1;ratioP1;P1;durP2;ratioP2;P2;SDS_P1;SDS_P2;PMS_P1;PMS_P2;Temp;Humidity;BMP_temperature;BMP_pressure;BME280_temperature;BME280_humidity;BME280_pressure;Samples;Min_cycle;Max_cycle;Signal;HPM_P1;HPM_P2
2022/09/11 00:00:49;;;;;;;36.40;17.27;;;;;;;16.28;100.00;98368.16;4445710;32;20033;-72
2022/09/11 00:03:28;;;;;;;43.28;18.62;;;;;;;16.09;100.00;98335.69;4446313;32;20038;-69
2022/09/11 00:05:55;;;;;;;42.55;17.70;;;;;;;16.22;100.00;98380.22;4444526;32;20064;-70
2022/09/11 00:08:21;;;;;;;43.55;16.98;;;;;;;16.26;100.00;98354.09;4415407;32;20326;-69
2022/09/11 00:10:48;;;;;;;41.00;16.95;;;;;;;16.25;100.00;98357.91;4413361;32;20038;-71
2022/09/11 00:13:21;;;;;;;49.78;18.45;;;;;;;15.54;100.00;98293.03;4415614;32;20074;-69
2022/09/11 00:15:50;;;;;;;44.15;17.30;;;;;;;16.17;100.00;98369.47;4383329;32;20042;-69
2022/09/11 00:18:20;;;;;;;39.85;17.83;;;;;;;16.26;100.00;98364.97;4384411;32;20438;-69
2022/09/11 00:20:49;;;;;;;45.53;18.35;;;;;;;16.22;100.00;98342.22;4413137;32;20115;-70
2022/09/11 00:23:17;;;;;;;52.08;18.75;;;;;;;16.45;100.00;98374.88;4401944;32;20043;-70
2022/09/11 00:25:45;;;;;;;65.47;19.58;;;;;;;16.34;100.00;98377.03;4415317;32;20034;-69
2022/09/11 00:28:24;;;;;;;47.70;18.80;;;;;;;16.27;100.00;98335.88;4415330;32;20034;-70
2022/09/11 00:30:58;;;;;;;42.13;19.05;;;;;;;16.28;100.00;98330.13;4406429;32;20055;-70
2022/09/11 00:33:26;;;;;;;44.80;18.40;;;;;;;16.66;100.00;98367.91;4400262;32;20031;-69
2022/09/11 00:35:58;;;;;;;47.38;18.92;;;;;;;16.48;100.00;98361.50;4398784;32;20372;-71
2022/09/11 00:38:29;;;;;;;51.60;18.80;;;;;;;16.26;100.00;98332.34;4399346;32;20413;-71
2022/09/11 00:40:58;;;;;;;57.05;20.42;;;;;;;16.64;100.00;98361.16;4418111;32;20410;-69
2022/09/11 00:43:27;;;;;;;63.35;18.17;;;;;;;16.44;100.00;98302.66;4429965;32;20027;-69
2022/09/11 00:46:01;;;;;;;61.67;20.48;;;;;;;16.83;100.00;98350.13;4420569;32;20030;-69
2022/09/11 00:48:35;;;;;;;59.47;19.60;;;;;;;16.91;100.00;98335.81;4468106;32;20080;-69
2022/09/11 00:51:03;;;;;;;54.75;18.25;;;;;;;16.92;100.00;98326.56;4463517;32;20029;-69
2022/09/11 00:53:35;;;;;;;45.12;17.92;;;;;;;16.44;100.00;98273.56;4463021;32;20062;-69
2022/09/11 00:56:06;;;;;;;51.08;19.15;;;;;;;16.68;100.00;98334.97;4462010;32;20406;-70
2022/09/11 00:58:38;;;;;;;39.35;15.93;;;;;;;16.09;100.00;98305.81;4463516;32;20075;-69
2022/09/11 01:01:04;;;;;;;46.00;18.20;;;;;;;15.95;100.00;98273.25;4414764;32;20038;-70
2022/09/11 01:03:31;;;;;;;44.28;18.20;;;;;;;16.27;100.00;98333.16;4411349;32;20081;-69
2022/09/11 01:05:58;;;;;;;43.35;18.77;;;;;;;16.38;100.00;98329.09;4412903;32;20065;-72
2022/09/11 01:08:26;;;;;;;45.08;17.62;;;;;;;16.31;100.00;98343.12;4413801;32;20058;-70
2022/09/11 01:11:20;;;;;;;43.22;16.12;;;;;;;16.16;100.00;98306.22;4414652;32;20129;-69
2022/09/11 01:13:49;;;;;;;50.85;17.00;;;;;;;16.21;100.00;98321.63;4399475;32;20042;-70
2022/09/11 01:16:21;;;;;;;44.10;17.02;;;;;;;16.40;100.00;98351.38;4402446;32;20395;-69
2022/09/11 01:19:11;;;;;;;37.50;15.88;;;;;;;16.22;100.00;98347.66;4403021;32;20405;-69
2022/09/11 01:22:06;;;;;;;58.00;17.00;;;;;;;16.06;100.00;98340.94;4370927;32;20073;-70
2022/09/11 01:24:55;;;;;;;53.25;17.65;;;;;;;16.06;100.00;98343.62;4372521;32;20164;-70
2022/09/11 01:28:00;;;;;;;52.40;17.95;;;;;;;16.22;100.00;98339.50;4370472;32;20024;-70
2022/09/11 01:30:34;;;;;;;65.12;18.60;;;;;;;16.28;100.00;98341.00;4371258;32;20057;-70
2022/09/11 01:33:00;;;;;;;68.60;17.17;;;;;;;16.30;100.00;98344.22;4410997;32;20049;-70
2022/09/11 01:35:30;;;;;;;62.45;18.02;;;;;;;15.99;100.00;98333.19;4416582;32;20394;-70
2022/09/11 01:38:07;;;;;;;62.17;17.62;;;;;;;16.28;100.00;98335.56;4386549;32;20057;-73
2022/09/11 01:40:55;;;;;;;57.90;18.35;;;;;;;16.29;100.00;98334.47;4372246;32;20129;-71
2022/09/11 01:43:29;;;;;;;63.92;16.80;;;;;;;16.48;100.00;98333.50;4356135;32;20024;-70
2022/09/11 01:46:00;;;;;;;62.30;18.65;;;;;;;16.42;100.00;98338.28;4383683;32;20039;-70
2022/09/11 01:48:37;;;;;;;62.45;18.80;;;;;;;16.17;100.00;98299.66;4387427;32;20036;-70
2022/09/11 01:51:08;;;;;;;59.53;17.98;;;;;;;16.08;100.00;98289.81;4387056;32;20043;-71
2022/09/11 01:53:38;;;;;;;56.67;17.92;;;;;;;16.22;100.00;98319.69;4384329;32;20358;-70
2022/09/11 01:56:10;;;;;;;79.60;19.35;;;;;;;16.17;100.00;98324.09;4393608;32;20048;-70
2022/09/11 01:58:37;;;;;;;61.00;15.23;;;;;;;16.33;100.00;98327.31;4414887;32;20178;-70
2022/09/11 02:01:08;;;;;;;54.28;17.25;;;;;;;15.91;100.00;98283.12;4413391;32;20084;-70
2022/09/11 02:04:04;;;;;;;50.03;14.65;;;;;;;16.09;100.00;98283.31;4402468;32;20050;-71
2022/09/11 02:07:04;;;;;;;34.65;14.15;;;;;;;16.13;100.00;98284.28;4385803;32;20034;-74
2022/09/11 02:09:39;;;;;;;39.08;14.80;;;;;;;16.29;100.00;98304.59;4396117;32;20101;-71
2022/09/11 02:12:10;;;;;;;35.08;13.20;;;;;;;16.04;100.00;98265.19;4401333;32;20030;-73
2022/09/11 02:14:46;;;;;;;29.33;11.93;;;;;;;16.38;100.00;98303.88;4419682;32;20047;-71
2022/09/11 02:17:42;;;;;;;26.17;12.43;;;;;;;16.36;100.00;98303.38;4446662;32;20067;-71
2022/09/11 02:20:09;;;;;;;31.30;11.85;;;;;;;16.29;100.00;98315.47;4412954;32;20086;-69
2022/09/11 02:22:36;;;;;;;26.50;12.13;;;;;;;15.91;100.00;98277.69;4411660;32;20042;-69
2022/09/11 02:25:04;;;;;;;21.90;9.95;;;;;;;15.84;100.00;98277.28;4364121;32;20408;-69
2022/09/11 02:27:30;;;;;;;25.37;9.98;;;;;;;15.55;100.00;98232.22;4356959;32;20164;-69
2022/09/11 02:29:58;;;;;;;19.37;11.12;;;;;;;15.76;100.00;98276.09;4358531;32;20034;-69
2022/09/11 02:32:26;;;;;;;23.92;9.68;;;;;;;16.05;100.00;98304.00;4356409;32;20678;-70
2022/09/11 02:34:54;;;;;;;21.05;9.85;;;;;;;16.00;100.00;98298.69;4360543;32;20061;-70
2022/09/11 02:37:31;;;;;;;19.10;9.75;;;;;;;15.79;100.00;98282.81;4383754;32;20050;-69
2022/09/11 02:40:06;;;;;;;20.42;9.52;;;;;;;15.81;100.00;98299.59;4400214;32;20447;-70
2022/09/11 02:42:39;;;;;;;18.55;8.88;;;;;;;15.79;100.00;98261.09;4401542;32;20053;-70
2022/09/11 02:45:53;;;;;;;21.15;10.43;;;;;;;16.10;100.00;98268.63;4371850;32;20027;-69
2022/09/11 02:48:42;;;;;;;22.60;9.38;;;;;;;15.70;100.00;98190.44;4378374;32;20061;-69
2022/09/11 02:51:38;;;;;;;26.90;10.20;;;;;;;16.39;100.00;98297.34;4407664;32;20077;-70
2022/09/11 02:54:09;;;;;;;25.95;9.60;;;;;;;16.52;100.00;98296.47;4432212;32;20035;-69
2022/09/11 02:56:45;;;;;;;27.10;9.60;;;;;;;16.27;100.00;98308.72;4430922;32;20033;-70
2022/09/11 02:59:27;;;;;;;23.65;9.75;;;;;;;16.20;100.00;98268.38;4401357;32;20057;-69
2022/09/11 03:01:57;;;;;;;22.25;9.02;;;;;;;16.27;100.00;98295.13;4406633;32;20031;-72
2022/09/11 03:04:25;;;;;;;19.08;8.25;;;;;;;16.10;100.00;98307.44;4401628;32;20047;-69
2022/09/11 03:06:52;;;;;;;26.50;10.23;;;;;;;15.93;100.00;98270.03;4401535;32;20060;-70
2022/09/11 03:09:19;;;;;;;23.02;9.05;;;;;;;15.89;100.00;98274.47;4369901;32;20096;-70
2022/09/11 03:11:46;;;;;;;16.55;8.35;;;;;;;15.60;100.00;98263.87;4370933;32;20450;-70
2022/09/11 03:14:13;;;;;;;16.73;8.23;;;;;;;15.80;100.00;98300.72;4368747;32;20028;-70
2022/09/11 03:16:42;;;;;;;17.62;8.82;;;;;;;15.66;100.00;98302.59;4354919;32;20032;-71
2022/09/11 03:19:11;;;;;;;18.15;7.78;;;;;;;15.88;100.00;98305.44;4356273;32;20043;-70
2022/09/11 03:21:38;;;;;;;15.10;7.30;;;;;;;15.94;100.00;98277.09;4355421;32;20355;-70
2022/09/11 03:24:05;;;;;;;17.40;8.07;;;;;;;16.05;100.00;98293.16;4357057;32;20040;-73
2022/09/11 03:29:07;;;;;;;15.60;7.10;;;;;;;15.48;100.00;98220.19;4356276;32;20031;-74
2022/09/11 03:31:34;;;;;;;13.18;7.03;;;;;;;15.55;100.00;98264.78;4385989;32;20051;-74
2022/09/11 03:34:00;;;;;;;12.73;7.10;;;;;;;15.92;100.00;98295.59;4383361;32;20407;-74
2022/09/11 03:36:27;;;;;;;15.77;8.30;;;;;;;15.75;100.00;98295.38;4397129;32;20042;-73
2022/09/11 03:38:54;;;;;;;18.15;7.62;;;;;;;15.57;100.00;98295.16;4400948;32;20057;-73
2022/09/11 03:41:20;;;;;;;16.85;7.62;;;;;;;15.69;100.00;98300.06;4412974;32;20031;-73
2022/09/11 03:43:47;;;;;;;18.08;8.07;;;;;;;15.44;100.00;98293.22;4415924;32;20040;-73
2022/09/11 03:46:14;;;;;;;14.25;7.95;;;;;;;15.12;100.00;98273.16;4366861;32;20043;-74
2022/09/11 03:48:40;;;;;;;21.30;8.80;;;;;;;15.38;100.00;98259.97;4383887;32;20072;-73
2022/09/11 03:51:07;;;;;;;14.77;8.57;;;;;;;15.75;100.00;98312.44;4385850;32;20031;-74
2022/09/11 03:53:34;;;;;;;12.43;7.95;;;;;;;15.64;100.00;98315.66;4388698;32;20043;-73
2022/09/11 03:56:03;;;;;;;14.48;8.30;;;;;;;15.54;100.00;98274.06;4367342;32;20061;-75
2022/09/11 03:58:33;;;;;;;14.23;8.52;;;;;;;15.60;100.00;98302.69;4368793;32;20844;-74
2022/09/11 04:01:00;;;;;;;16.20;8.88;;;;;;;15.50;100.00;98308.31;4369270;32;20065;-73
2022/09/11 04:03:30;;;;;;;16.70;8.52;;;;;;;15.48;100.00;98302.37;4370293;32;20510;-74
2022/09/11 04:06:00;;;;;;;17.55;8.43;;;;;;;15.53;100.00;98269.72;4369276;32;20024;-76
2022/09/11 04:08:27;;;;;;;17.12;8.65;;;;;;;15.64;100.00;98304.81;4378818;32;20046;-73
2022/09/11 04:11:00;;;;;;;17.98;9.23;;;;;;;15.58;100.00;98307.59;4415709;32;20056;-74
2022/09/11 04:13:28;;;;;;;17.02;8.80;;;;;;;15.52;100.00;98297.94;4385274;32;20039;-74
2022/09/11 04:16:01;;;;;;;14.07;8.32;;;;;;;15.35;100.00;98292.28;4383343;32;20399;-76
2022/09/11 04:18:36;;;;;;;20.83;9.25;;;;;;;15.23;100.00;98301.72;4396898;32;20039;-72
2022/09/11 04:21:04;;;;;;;18.10;9.23;;;;;;;15.40;100.00;98305.78;4398831;32;20043;-72
2022/09/11 04:23:31;;;;;;;20.37;9.80;;;;;;;15.56;100.00;98282.69;4399505;32;20035;-75
2022/09/11 04:25:57;;;;;;;19.45;10.38;;;;;;;15.40;100.00;98297.66;4396136;32;20068;-73
2022/09/11 04:28:26;;;;;;;22.30;9.90;;;;;;;15.12;100.00;98262.31;4407485;32;20042;-73
2022/09/11 04:30:52;;;;;;;19.12;9.65;;;;;;;15.49;100.00;98297.75;4410497;32;20027;-73
2022/09/11 04:33:20;;;;;;;19.70;9.80;;;;;;;15.26;100.00;98262.34;4400106;32;20031;-73
2022/09/11 04:35:47;;;;;;;20.70;9.82;;;;;;;15.61;100.00;98300.78;4398413;32;20072;-74
2022/09/11 04:38:14;;;;;;;19.12;9.18;;;;;;;15.74;100.00;98293.75;4410677;32;20046;-73
2022/09/11 04:40:41;;;;;;;19.20;9.70;;;;;;;15.51;100.00;98242.09;4439204;32;20037;-73
2022/09/11 04:43:08;;;;;;;21.52;9.55;;;;;;;15.67;100.00;98258.06;4444318;32;20378;-73
2022/09/11 04:45:37;;;;;;;25.95;11.50;;;;;;;15.49;100.00;98260.56;4460576;32;20430;-73
2022/09/11 04:48:04;;;;;;;27.92;11.52;;;;;;;15.49;100.00;98293.13;4462234;32;20041;-73
2022/09/11 04:50:37;;;;;;;27.50;11.95;;;;;;;15.46;100.00;98293.75;4466923;32;20451;-72
2022/09/11 04:53:06;;;;;;;24.65;11.73;;;;;;;15.44;100.00;98296.75;4463179;32;20034;-72
2022/09/11 04:55:33;;;;;;;25.17;12.07;;;;;;;15.16;100.00;98252.50;4446752;32;20058;-75
2022/09/11 04:57:59;;;;;;;23.75;10.57;;;;;;;15.40;100.00;98281.38;4430403;32;20057;-73
2022/09/11 05:00:26;;;;;;;22.00;11.07;;;;;;;15.24;100.00;98246.38;4381496;32;20376;-73
2022/09/11 05:02:53;;;;;;;30.92;12.37;;;;;;;15.23;100.00;98290.88;4387036;32;20052;-73
2022/09/11 05:05:20;;;;;;;27.10;10.23;;;;;;;15.28;100.00;98297.31;4359104;32;20097;-73
2022/09/11 05:07:49;;;;;;;25.30;10.70;;;;;;;14.62;100.00;98213.31;4353723;32;20055;-74
2022/09/11 05:10:16;;;;;;;32.97;10.52;;;;;;;15.33;100.00;98286.37;4349290;32;20063;-75
2022/09/11 05:12:43;;;;;;;36.47;12.50;;;;;;;15.28;100.00;98259.34;4356495;32;20058;-73
2022/09/11 05:15:09;;;;;;;22.60;10.05;;;;;;;15.20;100.00;98256.22;4355716;32;20107;-74
2022/09/11 05:17:38;;;;;;;33.03;12.18;;;;;;;15.37;100.00;98300.97;4353574;32;20043;-74
2022/09/11 05:20:05;;;;;;;27.77;11.25;;;;;;;15.50;100.00;98293.94;4356114;32;20079;-74
2022/09/11 05:22:32;;;;;;;20.20;10.02;;;;;;;15.52;100.00;98291.72;4356183;32;20443;-73
2022/09/11 05:25:00;;;;;;;20.33;10.55;;;;;;;15.16;100.00;98263.34;4343588;32;20180;-74
2022/09/11 05:27:27;;;;;;;23.67;10.80;;;;;;;15.29;100.00;98288.09;4336743;33;20054;-78
2022/09/11 05:29:54;;;;;;;19.58;10.35;;;;;;;15.29;100.00;98293.50;4349888;32;20036;-75
2022/09/11 05:32:23;;;;;;;27.55;11.00;;;;;;;15.16;100.00;98282.34;4369705;32;20407;-74
2022/09/11 05:34:50;;;;;;;22.80;10.30;;;;;;;15.12;100.00;98267.75;4355684;32;20069;-74
2022/09/11 05:37:18;;;;;;;24.63;11.15;;;;;;;14.92;100.00;98257.25;4355349;32;20040;-74
2022/09/11 05:39:48;;;;;;;21.77;11.07;;;;;;;15.29;100.00;98304.34;4353599;32;20069;-73
2022/09/11 05:42:15;;;;;;;26.35;11.45;;;;;;;14.94;100.00;98271.34;4357035;32;20044;-74
2022/09/11 05:44:42;;;;;;;24.58;11.07;;;;;;;15.23;100.00;98300.91;4362564;32;20114;-72
2022/09/11 05:47:09;;;;;;;23.33;11.12;;;;;;;15.08;100.00;98272.19;4362010;32;20100;-74
2022/09/11 05:49:35;;;;;;;21.65;10.45;;;;;;;15.20;100.00;98279.81;4357059;32;20351;-74
2022/09/11 05:52:02;;;;;;;20.45;10.25;;;;;;;15.19;100.00;98265.47;4371952;32;20051;-73
2022/09/11 05:54:29;;;;;;;22.55;10.63;;;;;;;15.37;100.00;98312.59;4363789;32;20083;-74
2022/09/11 05:56:59;;;;;;;18.83;10.25;;;;;;;15.21;100.00;98268.69;4355799;32;20031;-74
2022/09/11 05:59:26;;;;;;;22.62;10.77;;;;;;;15.43;100.00;98310.63;4351288;32;20435;-78
2022/09/11 06:01:53;;;;;;;18.27;10.20;;;;;;;15.52;100.00;98278.16;4343489;32;20043;-74
2022/09/11 06:04:20;;;;;;;22.20;10.15;;;;;;;15.40;100.00;98274.03;4351975;32;20317;-73
2022/09/11 06:06:47;;;;;;;17.25;9.68;;;;;;;15.33;100.00;98272.81;4354626;32;20450;-73
2022/09/11 06:09:14;;;;;;;22.00;11.68;;;;;;;15.15;100.00;98215.63;4360025;32;20380;-74
2022/09/11 06:11:41;;;;;;;21.90;10.43;;;;;;;15.76;100.00;98302.37;4370318;32;20057;-74
2022/09/11 06:14:08;;;;;;;20.33;10.57;;;;;;;15.39;100.00;98272.41;4374130;32;20053;-74
2022/09/11 06:16:34;;;;;;;22.70;11.57;;;;;;;15.67;100.00;98293.34;4363668;32;20066;-74
2022/09/11 06:19:03;;;;;;;17.37;10.82;;;;;;;15.65;100.00;98276.56;4338435;33;20480;-74
2022/09/11 06:21:30;;;;;;;20.70;10.73;;;;;;;15.71;100.00;98278.06;4339190;32;20072;-75
2022/09/11 06:23:57;;;;;;;21.95;10.65;;;;;;;15.82;100.00;98306.63;4337759;33;20114;-75
2022/09/11 06:26:25;;;;;;;22.98;11.65;;;;;;;15.76;100.00;98296.97;4340396;33;20028;-74
2022/09/11 06:28:53;;;;;;;20.83;10.57;;;;;;;15.76;100.00;98275.25;4358560;32;20072;-74
2022/09/11 06:31:23;;;;;;;21.08;10.70;;;;;;;15.68;100.00;98295.75;4338154;33;20039;-76
2022/09/11 06:33:50;;;;;;;22.60;12.02;;;;;;;15.68;100.00;98244.19;4338635;33;20500;-77
2022/09/11 06:36:19;;;;;;;15.48;10.15;;;;;;;15.89;100.00;98301.63;4339432;33;20036;-75
2022/09/11 06:38:52;;;;;;;22.42;9.88;;;;;;;16.01;100.00;98297.59;4331984;33;20069;-74
2022/09/11 06:41:19;;;;;;;23.25;10.88;;;;;;;15.99;100.00;98316.91;4365224;32;20455;-74
2022/09/11 06:43:46;;;;;;;19.70;10.73;;;;;;;16.00;100.00;98296.78;4353479;32;20028;-74
2022/09/11 06:46:16;;;;;;;16.33;10.35;;;;;;;16.10;100.00;98312.06;4355787;32;20071;-72
2022/09/11 06:48:44;;;;;;;21.62;10.45;;;;;;;16.20;100.00;98306.41;4352202;32;20031;-73
2022/09/11 06:51:14;;;;;;;23.83;10.85;;;;;;;15.95;100.00;98278.66;4399146;32;20030;-74
2022/09/11 06:53:42;;;;;;;20.37;10.52;;;;;;;15.94;100.00;98298.81;4382207;32;20048;-74
2022/09/11 06:56:12;;;;;;;16.75;9.88;;;;;;;15.97;100.00;98309.06;4369028;32;20070;-74
2022/09/11 06:58:40;;;;;;;24.73;10.50;;;;;;;15.73;100.00;98276.66;4368273;32;20096;-75
2022/09/11 07:01:10;;;;;;;26.85;12.88;;;;;;;16.02;100.00;98312.75;4367436;32;20073;-73
2022/09/11 07:03:46;;;;;;;22.05;11.20;;;;;;;16.08;100.00;98303.41;4364511;32;20065;-77
2022/09/11 07:06:17;;;;;;;17.75;10.48;;;;;;;16.08;100.00;98308.84;4370297;32;20056;-73
2022/09/11 07:08:52;;;;;;;20.35;9.90;;;;;;;16.02;100.00;98299.19;4360353;32;20099;-73
2022/09/11 07:11:19;;;;;;;16.40;9.77;;;;;;;15.82;100.00;98268.63;4341816;33;20059;-74
2022/09/11 07:13:47;;;;;;;17.45;8.73;;;;;;;15.94;100.00;98309.66;4338585;33;20027;-73
2022/09/11 07:16:16;;;;;;;16.00;9.15;;;;;;;16.12;100.00;98315.28;4361927;32;20043;-75
2022/09/11 07:18:46;;;;;;;15.05;9.35;;;;;;;15.96;100.00;98312.88;4363301;32;20061;-74
2022/09/11 07:21:15;;;;;;;15.10;8.38;;;;;;;16.07;100.00;98304.53;4353672;32;20039;-74
2022/09/11 07:23:47;;;;;;;18.52;9.18;;;;;;;16.13;100.00;98303.28;4335890;33;20024;-75
2022/09/11 07:26:15;;;;;;;15.70;9.23;;;;;;;16.13;100.00;98262.56;4339374;33;20804;-75
2022/09/11 07:28:41;;;;;;;15.52;9.07;;;;;;;16.12;100.00;98256.34;4354447;32;20036;-75
2022/09/11 07:31:13;;;;;;;14.10;8.18;;;;;;;16.50;100.00;98306.84;4370328;32;20053;-73
2022/09/11 07:33:44;;;;;;;12.07;7.82;;;;;;;16.45;100.00;98296.91;4370326;32;20120;-76
2022/09/11 07:36:13;;;;;;;13.00;8.35;;;;;;;16.39;100.00;98302.75;4397777;32;20043;-73
2022/09/11 07:38:42;;;;;;;13.00;7.37;;;;;;;16.47;100.00;98293.87;4356186;32;20125;-74
2022/09/11 07:41:13;;;;;;;14.27;8.05;;;;;;;16.21;100.00;98267.28;4368323;32;20031;-73
2022/09/11 07:43:44;;;;;;;12.45;6.70;;;;;;;16.27;100.00;98290.50;4378874;32;20067;-73
2022/09/11 07:46:12;;;;;;;15.13;8.18;;;;;;;16.33;100.00;98283.84;4376360;32;21007;-74
2022/09/11 07:48:41;;;;;;;9.45;6.12;;;;;;;16.43;100.00;98288.25;4361621;32;20031;-74
2022/09/11 07:51:11;;;;;;;10.93;7.07;;;;;;;16.32;100.00;98292.28;4368068;32;20377;-75
2022/09/11 07:53:50;;;;;;;13.13;8.38;;;;;;;16.33;100.00;98299.34;4365736;32;20047;-77
2022/09/11 07:56:22;;;;;;;16.12;7.40;;;;;;;16.17;100.00;98263.56;4396787;32;20161;-74
2022/09/11 07:58:51;;;;;;;11.35;7.07;;;;;;;16.39;100.00;98308.19;4395982;32;20066;-75
2022/09/11 08:01:22;;;;;;;12.88;7.75;;;;;;;15.89;100.00;98271.75;4393667;32;20056;-77
2022/09/11 08:03:58;;;;;;;14.32;8.38;;;;;;;15.94;100.00;98270.84;4396930;32;20105;-76
2022/09/11 08:06:28;;;;;;;12.10;7.55;;;;;;;16.01;100.00;98275.88;4395436;32;20116;-72
2022/09/11 08:09:00;;;;;;;13.43;7.68;;;;;;;16.10;100.00;98301.22;4413048;32;20072;-75
2022/09/11 08:11:34;;;;;;;8.93;6.45;;;;;;;16.08;100.00;98273.53;4422368;32;20034;-75
2022/09/11 08:14:02;;;;;;;12.05;7.57;;;;;;;16.26;100.00;98316.06;4423615;32;20041;-74
2022/09/11 08:16:28;;;;;;;11.80;6.97;;;;;;;16.11;100.00;98281.06;4429635;32;20470;-73
2022/09/11 08:18:56;;;;;;;8.30;6.22;;;;;;;16.45;100.00;98306.94;4431701;32;20038;-76
2022/09/11 08:21:25;;;;;;;12.27;8.07;;;;;;;16.48;100.00;98311.78;4432871;32;20068;-75
2022/09/11 08:23:51;;;;;;;12.37;6.82;;;;;;;16.35;100.00;98313.41;4441112;32;20075;-76
2022/09/11 08:26:21;;;;;;;9.13;6.72;;;;;;;16.45;100.00;98306.94;4428451;32;20465;-73
2022/09/11 08:28:51;;;;;;;10.38;6.43;;;;;;;16.01;100.00;98254.16;4430593;32;20041;-73
2022/09/11 08:31:20;;;;;;;14.27;6.95;;;;;;;16.26;100.00;98278.03;4418860;32;20056;-74
2022/09/11 08:33:50;;;;;;;12.43;8.00;;;;;;;16.58;100.00;98311.56;4395612;32;20076;-74
2022/09/11 08:36:18;;;;;;;10.15;6.32;;;;;;;16.50;100.00;98299.50;4398010;32;20060;-73
2022/09/11 08:38:45;;;;;;;11.10;7.22;;;;;;;16.29;100.00;98315.47;4398764;32;20502;-74
2022/09/11 08:41:28;;;;;;;14.55;7.90;;;;;;;16.17;100.00;98274.44;4397210;32;20077;-78
2022/09/11 08:44:04;;;;;;;10.07;7.03;;;;;;;16.49;100.00;98297.88;4392411;32;20019;-74
2022/09/11 08:46:36;;;;;;;11.73;6.50;;;;;;;16.82;100.00;98318.63;4353427;33;20040;-74
2022/09/11 08:49:23;;;;;;;10.18;5.65;;;;;;;16.48;100.00;98290.88;4351893;33;20071;-78
2022/09/11 08:51:53;;;;;;;9.55;6.10;;;;;;;16.32;100.00;98287.69;4354521;33;20121;-74
2022/09/11 08:54:30;;;;;;;9.80;6.22;;;;;;;16.15;100.00;98292.94;4354399;33;20036;-74
2022/09/11 08:57:36;;;;;;;11.43;6.32;;;;;;;16.69;100.00;98326.53;4356547;32;20039;-74
2022/09/11 09:00:25;;;;;;;9.32;5.70;;;;;;;16.90;100.00;98323.34;4342249;32;20043;-75
2022/09/11 09:03:07;;;;;;;7.30;5.70;;;;;;;16.87;100.00;98329.41;4363287;32;20117;-74
2022/09/11 09:06:17;;;;;;;8.30;5.80;;;;;;;16.58;100.00;98344.16;4388573;32;20423;-74
2022/09/11 09:08:55;;;;;;;11.63;5.50;;;;;;;16.74;100.00;98330.22;4411421;32;20042;-74
2022/09/11 09:12:03;;;;;;;6.97;5.75;;;;;;;17.04;100.00;98324.09;4391624;32;20057;-73
2022/09/11 09:14:50;;;;;;;7.65;5.57;;;;;;;17.18;100.00;98328.66;4332197;33;20055;-77
2022/09/11 09:17:41;;;;;;;8.82;5.82;;;;;;;17.05;100.00;98327.62;4339227;33;20172;-77
2022/09/11 09:20:15;;;;;;;7.95;5.72;;;;;;;17.13;100.00;98321.41;4356242;32;20073;-75
2022/09/11 09:22:53;;;;;;;8.80;5.87;;;;;;;16.88;100.00;98276.63;4353212;33;20032;-73
2022/09/11 09:25:22;;;;;;;9.18;6.28;;;;;;;17.17;100.00;98289.78;4353572;32;20105;-74
2022/09/11 09:28:14;;;;;;;9.95;6.22;;;;;;;17.18;100.00;98282.41;4351371;32;20051;-76
2022/09/11 09:30:54;;;;;;;11.52;6.53;;;;;;;17.52;100.00;98324.53;4355333;32;20028;-75
2022/09/11 09:33:31;;;;;;;11.10;5.82;;;;;;;17.54;100.00;98319.59;4343796;32;20048;-75
2022/09/11 09:36:17;;;;;;;10.07;6.22;;;;;;;17.25;100.00;98280.06;4348872;32;20117;-74
2022/09/11 09:38:45;;;;;;;11.68;6.20;;;;;;;17.46;100.00;98318.41;4341030;32;20181;-74
2022/09/11 09:41:14;;;;;;;11.95;6.80;;;;;;;17.26;100.00;98314.31;4337812;33;20040;-77
2022/09/11 09:43:58;;;;;;;10.25;6.85;;;;;;;17.38;100.00;98328.16;4335070;33;20066;-75
2022/09/11 09:46:35;;;;;;;12.20;6.97;;;;;;;16.83;100.00;98298.47;4350477;33;20043;-74
2022/09/11 09:49:01;;;;;;;9.75;6.32;;;;;;;16.87;100.00;98313.09;4383801;32;20038;-73
2022/09/11 09:51:28;;;;;;;8.13;6.07;;;;;;;16.00;100.00;98264.19;4395781;32;20057;-75
2022/09/11 09:53:59;;;;;;;10.75;5.75;;;;;;;16.65;100.00;98298.34;4371015;32;20061;-74
2022/09/11 09:56:27;;;;;;;;;;;;;;;16.54;100.00;98305.12;4368714;32;20051;-78
2022/09/11 09:59:01;;;;;;;10.57;6.37;;;;;;;16.79;100.00;98335.56;4368722;32;20001;-75
2022/09/11 10:01:48;;;;;;;7.05;5.37;;;;;;;16.28;100.00;98302.97;4353403;32;20039;-75
2022/09/11 10:04:20;;;;;;;6.78;5.10;;;;;;;16.17;100.00;98334.97;4355995;32;20036;-74
2022/09/11 10:06:50;;;;;;;9.48;5.95;;;;;;;16.42;100.00;98334.72;4361965;32;20107;-74
2022/09/11 10:09:21;;;;;;;7.68;5.22;;;;;;;16.34;100.00;98345.22;4370619;32;20523;-74
2022/09/11 10:11:54;;;;;;;7.00;5.62;;;;;;;16.54;100.00;98326.84;4390036;32;20107;-78
2022/09/11 10:14:22;;;;;;;5.30;4.47;;;;;;;16.12;100.00;98271.84;4400039;32;20057;-74
2022/09/11 10:16:50;;;;;;;9.00;5.45;;;;;;;16.30;100.00;98289.88;4401274;32;20060;-74
2022/09/11 10:19:40;;;;;;;8.23;6.25;;;;;;;16.52;100.00;98321.72;4403067;32;20042;-73
2022/09/11 10:22:31;;;;;;;10.05;5.57;;;;;;;16.44;100.00;98337.97;4390669;32;20162;-73
2022/09/11 10:25:08;;;;;;;6.68;5.00;;;;;;;16.50;100.00;98342.19;4407488;32;20431;-72
2022/09/11 10:27:42;;;;;;;6.25;4.93;;;;;;;16.07;100.00;98312.69;4394362;32;20207;-73
2022/09/11 10:30:40;;;;;;;6.12;4.93;;;;;;;16.27;100.00;98338.59;4394887;32;20078;-73
2022/09/11 10:33:30;;;;;;;7.07;4.90;;;;;;;16.62;100.00;98337.00;4395975;32;20050;-73
2022/09/11 10:35:59;;;;;;;9.07;4.50;;;;;;;16.69;100.00;98323.81;4393231;32;20028;-72
2022/09/11 10:38:46;;;;;;;6.55;4.78;;;;;;;16.95;100.00;98325.94;4384070;32;20412;-75
2022/09/11 10:41:12;;;;;;;5.50;4.03;;;;;;;17.27;100.00;98334.97;4386164;32;20022;-74
2022/09/11 10:43:48;;;;;;;4.60;4.12;;;;;;;16.96;100.00;98335.72;4396068;32;20061;-72
2022/09/11 10:46:24;;;;;;;4.65;3.67;;;;;;;16.66;100.00;98321.69;4370811;32;20073;-72
2022/09/11 10:48:54;;;;;;;4.45;4.05;;;;;;;16.47;100.00;98321.06;4369395;32;20057;-72
2022/09/11 10:51:22;;;;;;;4.90;4.12;;;;;;;16.04;100.00;98264.41;4339465;33;20097;-74
2022/09/11 10:54:46;;;;;;;8.70;4.37;;;;;;;16.34;100.00;98318.06;4337870;33;20036;-75
2022/09/11 10:57:37;;;;;;;6.28;4.37;;;;;;;16.73;100.00;98339.50;4292017;33;20063;-76
2022/09/11 11:00:08;;;;;;;4.20;3.78;;;;;;;16.48;100.00;98306.34;4353061;32;20028;-74
2022/09/11 11:02:41;;;;;;;5.40;4.22;;;;;;;16.87;100.00;98334.84;4354398;32;20043;-75
2022/09/11 11:05:30;;;;;;;5.47;4.97;;;;;;;16.74;100.00;98343.81;4355477;32;20027;-75
2022/09/11 11:08:05;;;;;;;5.45;4.15;;;;;;;16.94;100.00;98348.81;4340039;33;20082;-79
2022/09/11 11:10:43;;;;;;;4.62;4.15;;;;;;;16.77;100.00;98356.78;4351436;32;20040;-75
2022/09/11 11:13:30;;;;;;;10.80;3.80;;;;;;;17.06;100.00;98348.28;4367350;32;20148;-76
2022/09/11 11:16:04;;;;;;;9.07;6.28;;;;;;;16.84;100.00;98373.50;4367037;32;20080;-76
2022/09/11 11:18:57;;;;;;;3.95;3.53;;;;;;;16.50;100.00;98331.31;4368650;32;20053;-74
2022/09/11 11:21:38;;;;;;;;;;;;;;;16.50;100.00;98374.78;4365925;32;20491;-74
2022/09/11 11:24:40;;;;;;;7.12;3.83;;;;;;;16.57;100.00;98369.72;4412252;32;19925;-76
2022/09/11 11:27:26;;;;;;;8.07;3.25;;;;;;;16.54;100.00;98375.78;4398931;32;20120;-76
2022/09/11 11:30:14;;;;;;;3.97;3.67;;;;;;;16.80;100.00;98372.50;4409995;32;20068;-76
2022/09/11 11:32:46;;;;;;;6.22;3.95;;;;;;;16.17;100.00;98334.19;4384280;32;20372;-74
2022/09/11 11:35:49;;;;;;;5.47;3.58;;;;;;;16.41;100.00;98376.63;4393788;32;20053;-74
2022/09/11 11:38:51;;;;;;;6.78;3.85;;;;;;;16.53;100.00;98368.75;4369500;32;20061;-74
2022/09/11 11:41:22;;;;;;;6.45;3.28;;;;;;;16.88;100.00;98377.22;4334119;33;20056;-74
2022/09/11 11:43:51;;;;;;;5.18;3.65;;;;;;;16.67;100.00;98358.66;4326109;33;20035;-77
2022/09/11 11:46:38;;;;;;;5.80;3.65;;;;;;;16.47;100.00;98338.16;4325194;33;20435;-76